Terminal Aerodrome Forecast
Issued by NWS Boise, ID

Home | Current Version | Previous Version | Text Only | Print | Product List | Glossary On
Versions: 1 2 3 4 5 6 7 8 9 10 11 12 13 14 15 16 17 18 19 20 21 22 23 24 25 26 27 28 29 30 31 32 33 34 35 36 37 38 39 40 41 42
000
FTUS45 KBOI 271140
TAFBOI
TAF
KBOI 271140Z 2712/2812 VRB05KT P6SM VCTS SCT100CB
      TEMPO 2712/2713 VRB10G20KT P6SM -TSRA BKN070CB
     FM271400 VRB05KT P6SM SCT100
     FM272000 31011KT P6SM VCTS BKN100CB
      TEMPO 2721/2801 VRB15G30KT -TSRA BKN070CB
     FM280400 VRB05KT P6SM VCSH BKN100=

USA.gov is the U.S. government's official web portal to all federal, state and local government web resources and services.